createdAt,value
2023-02-19T00:02:01.948Z,2.90
2023-02-19T00:04:30.421Z,2.50
2023-02-19T00:06:59.011Z,2.50
2023-02-19T00:09:28.860Z,3.00
2023-02-19T00:11:57.284Z,3.50
2023-02-19T00:14:25.671Z,3.40
2023-02-19T00:16:54.151Z,3.40
2023-02-19T00:19:25.503Z,3.70
2023-02-19T00:21:54.846Z,3.90
2023-02-19T00:24:23.459Z,4.40
2023-02-19T00:26:53.938Z,4.00
2023-02-19T00:29:22.946Z,3.90
2023-02-19T00:31:52.103Z,3.00
2023-02-19T00:34:21.097Z,3.20
2023-02-19T00:36:50.349Z,2.80
2023-02-19T00:39:19.090Z,2.60
2023-02-19T00:41:47.771Z,2.90
2023-02-19T00:44:16.768Z,2.80
2023-02-19T00:46:46.890Z,2.60
2023-02-19T00:49:20.505Z,2.90
2023-02-19T00:51:49.888Z,3.00
2023-02-19T00:54:20.343Z,2.80
2023-02-19T00:56:49.107Z,2.80
2023-02-19T00:59:17.839Z,2.80
2023-02-19T01:01:46.633Z,2.60
2023-02-19T01:04:16.645Z,2.60
2023-02-19T01:06:45.601Z,2.20
2023-02-19T01:09:14.759Z,2.60
2023-02-19T01:11:48.582Z,2.80
2023-02-19T01:14:17.116Z,2.90
2023-02-19T01:16:45.431Z,3.20
2023-02-19T01:19:14.232Z,3.30
2023-02-19T01:21:42.975Z,3.20
2023-02-19T01:24:14.465Z,3.00
2023-02-19T01:26:43.609Z,3.10
2023-02-19T01:29:14.618Z,2.80
2023-02-19T01:31:43.110Z,3.20
2023-02-19T01:34:13.137Z,3.20
2023-02-19T01:36:42.419Z,3.00
2023-02-19T01:39:10.997Z,3.20
2023-02-19T01:41:42.440Z,2.90
2023-02-19T01:44:12.403Z,3.10
2023-02-19T01:46:42.092Z,2.40
2023-02-19T01:49:24.681Z,2.70
2023-02-19T01:52:05.103Z,2.60
2023-02-19T01:54:36.668Z,2.90
2023-02-19T01:57:07.074Z,2.90
2023-02-19T01:59:35.896Z,2.80
2023-02-19T02:02:04.616Z,2.90
2023-02-19T02:04:34.208Z,3.20
2023-02-19T02:07:04.004Z,2.90
2023-02-19T02:09:51.579Z,2.80
2023-02-19T02:12:22.193Z,2.60
2023-02-19T02:14:51.377Z,3.00
2023-02-19T02:17:25.455Z,2.70
2023-02-19T02:20:30.371Z,2.90
2023-02-19T02:23:11.232Z,3.10
2023-02-19T02:25:56.327Z,2.60
2023-02-19T02:28:28.160Z,3.00
2023-02-19T02:31:00.228Z,2.50
2023-02-19T02:33:33.052Z,2.60
2023-02-19T02:36:05.773Z,2.50
2023-02-19T02:38:37.088Z,2.60
2023-02-19T02:41:05.714Z,2.90
2023-02-19T02:43:34.893Z,3.10
2023-02-19T02:46:05.033Z,2.70
2023-02-19T02:49:09.710Z,2.40
2023-02-19T02:51:50.886Z,2.40
2023-02-19T02:54:44.001Z,2.70
2023-02-19T02:57:15.164Z,2.60
2023-02-19T02:59:50.447Z,2.60
2023-02-19T03:02:26.048Z,2.80
2023-02-19T03:08:12.894Z,2.40
2023-02-19T03:10:46.242Z,2.80
2023-02-19T03:13:40.964Z,3.20
2023-02-19T03:16:32.189Z,2.90
2023-02-19T03:19:19.771Z,2.80
2023-02-19T03:22:13.839Z,3.90
2023-02-19T03:25:04.713Z,2.30
2023-02-19T03:27:34.691Z,2.50
2023-02-19T03:30:10.226Z,2.30
2023-02-19T03:32:49.315Z,2.10
2023-02-19T03:35:21.294Z,2.20
2023-02-19T03:37:57.444Z,2.40
2023-02-19T03:40:28.881Z,2.70
2023-02-19T03:43:41.325Z,2.80
2023-02-19T03:46:14.338Z,2.70
2023-02-19T03:49:02.667Z,3.00
2023-02-19T03:51:39.250Z,3.40
2023-02-19T03:54:29.394Z,3.60
2023-02-19T03:57:04.708Z,2.90
2023-02-19T03:59:42.136Z,4.30
2023-02-19T04:02:24.171Z,4.30
2023-02-19T04:05:07.281Z,4.30
2023-02-19T04:07:39.476Z,3.80
2023-02-19T04:10:08.248Z,4.80
2023-02-19T04:12:40.988Z,4.30
2023-02-19T04:15:12.152Z,4.10
2023-02-19T04:17:50.659Z,3.20
2023-02-19T04:20:19.154Z,3.20
2023-02-19T04:22:47.538Z,3.60
2023-02-19T04:25:16.072Z,3.00
2023-02-19T04:27:45.031Z,3.40
2023-02-19T04:30:13.941Z,3.40
2023-02-19T04:32:42.768Z,3.80
2023-02-19T04:35:12.585Z,3.10
2023-02-19T04:37:42.663Z,2.90
2023-02-19T04:40:11.145Z,3.00
2023-02-19T04:42:40.066Z,3.10
2023-02-19T04:45:09.213Z,3.40
2023-02-19T04:47:38.364Z,2.90
2023-02-19T04:50:08.122Z,3.20
2023-02-19T04:52:36.918Z,3.70
2023-02-19T04:55:06.479Z,3.80
2023-02-19T04:57:35.567Z,3.80
2023-02-19T05:00:05.035Z,3.90
2023-02-19T05:02:33.796Z,4.00
2023-02-19T05:05:02.377Z,3.80
2023-02-19T05:07:31.155Z,3.80
2023-02-19T05:10:00.814Z,4.20
2023-02-19T05:12:30.672Z,4.10
2023-02-19T05:14:59.969Z,4.20
2023-02-19T05:17:28.560Z,4.70
2023-02-19T05:20:01.346Z,4.40
2023-02-19T05:22:30.531Z,4.90
2023-02-19T05:25:02.790Z,4.60
2023-02-19T05:27:32.073Z,4.10
2023-02-19T05:30:00.572Z,4.00
2023-02-19T05:32:29.259Z,4.20
2023-02-19T05:34:57.876Z,5.10
2023-02-19T05:37:27.623Z,4.00
2023-02-19T05:39:56.115Z,3.90
2023-02-19T05:42:24.544Z,6.20
2023-02-19T05:44:53.768Z,5.60
2023-02-19T05:47:22.439Z,5.70
2023-02-19T05:49:51.278Z,4.70
2023-02-19T05:52:20.408Z,4.30
2023-02-19T05:54:49.234Z,3.90
2023-02-19T05:57:17.608Z,3.90
2023-02-19T05:59:46.101Z,4.20
2023-02-19T06:02:16.673Z,4.20
2023-02-19T06:04:45.121Z,3.90
2023-02-19T06:07:14.290Z,3.60
2023-02-19T06:09:43.550Z,3.70
2023-02-19T06:12:12.805Z,3.20
2023-02-19T06:14:42.956Z,3.30
2023-02-19T06:17:11.408Z,3.20
2023-02-19T06:19:39.793Z,3.60
2023-02-19T06:22:09.663Z,3.10
2023-02-19T06:24:42.026Z,3.90
2023-02-19T06:27:10.553Z,3.90
2023-02-19T06:29:38.968Z,3.90
2023-02-19T06:32:07.841Z,3.60
2023-02-19T06:34:36.967Z,3.90
2023-02-19T06:37:05.836Z,3.80
2023-02-19T06:39:34.276Z,3.60
2023-02-19T06:42:03.393Z,4.20
2023-02-19T06:44:32.154Z,3.80
2023-02-19T06:47:01.338Z,4.00
2023-02-19T06:49:30.098Z,4.40
2023-02-19T06:52:00.839Z,3.80
2023-02-19T06:54:29.635Z,4.10
2023-02-19T06:56:59.547Z,4.40
2023-02-19T06:59:28.955Z,4.10
2023-02-19T07:01:57.579Z,3.80
2023-02-19T07:04:25.972Z,3.10
2023-02-19T07:06:56.474Z,4.30
2023-02-19T19:30:29.329Z,4.30
2023-02-19T19:33:02.149Z,4.60
2023-02-19T19:35:30.922Z,5.00
2023-02-19T19:37:59.404Z,6.20
2023-02-19T19:40:28.250Z,7.30
2023-02-19T19:42:56.981Z,7.00
2023-02-19T19:45:25.886Z,7.10
2023-02-19T19:47:54.733Z,6.40
2023-02-19T19:50:23.529Z,6.50
2023-02-19T19:52:52.492Z,7.60
2023-02-19T19:55:23.952Z,7.80
2023-02-19T19:57:54.201Z,7.00
2023-02-19T20:00:24.749Z,5.80
2023-02-19T20:02:53.327Z,5.70
2023-02-19T20:05:22.533Z,5.30
2023-02-19T20:07:54.420Z,4.90
2023-02-19T20:10:24.868Z,4.30
2023-02-19T20:12:54.172Z,4.20
2023-02-19T20:15:23.039Z,4.40
2023-02-19T20:17:51.499Z,4.20
2023-02-19T20:20:20.251Z,4.20
2023-02-19T20:22:52.491Z,3.90
2023-02-19T20:25:22.414Z,3.90
2023-02-19T20:27:52.026Z,3.80
2023-02-19T20:30:22.553Z,3.90
2023-02-19T20:32:51.154Z,4.70
2023-02-19T20:35:20.344Z,6.40
2023-02-19T20:37:49.685Z,6.40
2023-02-19T20:40:19.373Z,6.90
2023-02-19T20:42:48.346Z,6.60
2023-02-19T20:45:17.016Z,6.90
2023-02-19T20:47:46.949Z,6.30
2023-02-19T20:50:20.613Z,7.10
2023-02-19T20:52:50.068Z,6.10
2023-02-19T20:55:19.543Z,4.70
2023-02-19T20:57:48.023Z,4.80
2023-02-19T21:00:17.327Z,4.60
2023-02-19T21:02:47.549Z,5.00
2023-02-19T21:05:17.765Z,4.20
2023-02-19T21:07:47.036Z,4.80
2023-02-19T21:10:15.455Z,6.50
2023-02-19T21:12:52.677Z,7.30
2023-02-19T21:15:21.410Z,6.90
2023-02-19T21:17:50.158Z,6.80
2023-02-19T21:20:19.098Z,5.70
2023-02-19T21:22:48.704Z,6.20
2023-02-19T21:25:17.880Z,5.40
2023-02-19T21:27:46.956Z,6.50
2023-02-19T21:30:18.111Z,6.10
2023-02-19T21:32:46.823Z,6.60
2023-02-19T21:35:15.334Z,5.60
2023-02-19T21:37:44.297Z,6.00
2023-02-19T21:40:13.724Z,4.40
2023-02-19T21:42:42.510Z,5.70
2023-02-19T21:45:11.103Z,5.50
2023-02-19T21:47:40.326Z,5.10
2023-02-19T21:50:09.164Z,4.50
2023-02-19T21:52:42.861Z,5.10
2023-02-19T21:55:11.292Z,5.30
2023-02-19T21:57:39.834Z,5.20
2023-02-19T22:00:09.095Z,5.90
2023-02-19T22:02:37.598Z,5.30
2023-02-19T22:05:06.774Z,5.70
2023-02-19T22:07:35.855Z,5.30
2023-02-19T22:10:05.625Z,4.90
2023-02-19T22:12:34.261Z,4.90
2023-02-19T22:15:03.646Z,4.60
2023-02-19T22:17:32.474Z,4.80
2023-02-19T22:20:00.929Z,5.10
2023-02-19T22:22:31.701Z,5.00
2023-02-19T22:25:02.152Z,5.10
2023-02-19T22:27:30.893Z,4.70
2023-02-19T22:29:59.876Z,4.60
2023-02-19T22:32:28.430Z,5.40
2023-02-19T22:34:57.144Z,5.00
2023-02-19T22:37:26.162Z,5.00
2023-02-19T22:39:54.581Z,4.80
2023-02-19T22:42:24.470Z,5.30
2023-02-19T22:44:53.155Z,5.50
2023-02-19T22:47:22.539Z,5.00
2023-02-19T22:49:51.554Z,4.70
2023-02-19T22:52:21.678Z,4.70
2023-02-19T22:54:52.776Z,5.20
2023-02-19T22:57:21.558Z,5.30
2023-02-19T22:59:49.980Z,5.20
2023-02-19T23:02:18.565Z,5.20
2023-02-19T23:04:46.990Z,5.10
2023-02-19T23:07:15.440Z,4.80
2023-02-19T23:09:43.856Z,5.00
2023-02-19T23:12:12.600Z,5.70
2023-02-19T23:14:41.049Z,5.10
2023-02-19T23:17:09.509Z,5.50
2023-02-19T23:19:39.426Z,4.50
2023-02-19T23:22:08.662Z,4.60
2023-02-19T23:24:37.251Z,4.80
2023-02-19T23:27:07.042Z,5.30
2023-02-19T23:29:35.754Z,5.00
2023-02-19T23:32:04.584Z,5.10
2023-02-19T23:34:33.647Z,5.50
2023-02-19T23:37:02.625Z,5.50
2023-02-19T23:39:31.320Z,4.80
2023-02-19T23:42:02.825Z,5.30
2023-02-19T23:44:32.549Z,5.60
2023-02-19T23:47:01.049Z,5.50
2023-02-19T23:49:29.937Z,5.10
2023-02-19T23:51:58.415Z,5.00
2023-02-19T23:54:27.074Z,5.00
2023-02-19T23:56:56.121Z,5.30
2023-02-19T23:59:25.209Z,4.90
